createdAt,value
2023-05-27T00:00:08.182Z,101988.62
2023-05-27T00:02:56.932Z,101991.10
2023-05-27T00:05:25.916Z,101989.50
2023-05-27T00:07:54.483Z,101990.92
2023-05-27T00:10:23.150Z,101988.55
2023-05-27T00:12:51.705Z,101989.82
2023-05-27T00:15:20.317Z,101997.04
2023-05-27T00:17:49.026Z,102000.29
2023-05-27T00:20:17.850Z,101998.92
2023-05-27T00:22:51.454Z,101996.73
2023-05-27T00:25:22.218Z,102000.55
2023-05-27T00:27:51.105Z,102002.77
2023-05-27T00:30:19.731Z,102002.90
2023-05-27T00:32:48.501Z,102002.13
2023-05-27T00:35:17.446Z,102000.05
2023-05-27T00:37:46.222Z,102001.27
2023-05-27T00:40:16.621Z,102000.84
2023-05-27T00:42:45.243Z,101999.16
2023-05-27T00:45:14.159Z,102009.92
2023-05-27T00:47:42.922Z,102007.16
2023-05-27T00:50:11.753Z,102010.42
2023-05-27T00:52:43.526Z,102013.30
2023-05-27T00:55:11.917Z,102008.95
2023-05-27T00:57:41.063Z,102007.55
2023-05-27T01:00:13.032Z,102013.17
2023-05-27T01:02:42.663Z,102008.36
2023-05-27T01:05:14.404Z,102009.83
2023-05-27T01:08:15.666Z,102009.74
2023-05-27T01:10:55.534Z,102013.42
2023-05-27T01:13:39.117Z,102013.92
2023-05-27T01:16:13.036Z,102018.89
2023-05-27T01:18:45.113Z,102016.99
2023-05-27T01:21:16.326Z,102017.80
2023-05-27T01:23:46.030Z,102023.10
2023-05-27T01:26:16.439Z,102026.28
2023-05-27T01:28:45.316Z,102029.02
2023-05-27T01:31:18.350Z,102031.83
2023-05-27T01:33:56.970Z,102033.65
2023-05-27T01:36:27.727Z,102033.57
2023-05-27T01:38:57.955Z,102038.45
2023-05-27T01:41:29.941Z,102037.91
2023-05-27T01:43:59.676Z,102032.13
2023-05-27T01:46:28.224Z,102030.83
2023-05-27T01:48:56.779Z,102033.92
2023-05-27T01:51:25.487Z,102027.88
2023-05-27T01:53:55.845Z,102026.88
2023-05-27T01:56:24.580Z,102027.25
2023-05-27T01:58:52.957Z,102026.52
2023-05-27T02:01:23.938Z,102030.23
2023-05-27T02:03:53.173Z,102031.33
2023-05-27T02:06:21.785Z,102033.79
2023-05-27T02:08:50.320Z,102036.07
2023-05-27T02:11:20.055Z,102031.64
2023-05-27T02:14:04.074Z,102034.95
2023-05-27T02:16:38.124Z,102039.82
2023-05-27T02:19:08.071Z,102039.42
2023-05-27T02:21:37.093Z,102038.36
2023-05-27T02:24:09.167Z,102038.48
2023-05-27T02:26:37.601Z,102042.74
2023-05-27T02:29:10.828Z,102042.83
2023-05-27T02:31:39.503Z,102043.84
2023-05-27T02:34:08.005Z,102044.25
2023-05-27T02:36:36.440Z,102044.97
2023-05-27T02:39:04.755Z,102046.24
2023-05-27T02:41:33.081Z,102041.70
2023-05-27T02:44:01.483Z,102040.84
2023-05-27T02:46:30.446Z,102046.84
2023-05-27T02:49:01.286Z,102046.31
2023-05-27T02:51:30.856Z,102047.10
2023-05-27T02:54:00.653Z,102050.17
2023-05-27T02:56:29.282Z,102055.23
2023-05-27T02:58:57.771Z,102057.31
2023-05-27T03:01:26.409Z,102052.27
2023-05-27T03:03:55.130Z,102057.70
2023-05-27T03:06:23.672Z,102059.32
2023-05-27T03:08:51.987Z,102060.59
2023-05-27T03:11:20.542Z,102060.30
2023-05-27T03:13:49.395Z,102062.61
2023-05-27T03:16:18.032Z,102063.52
2023-05-27T03:18:47.366Z,102064.69
2023-05-27T03:21:16.356Z,102067.84
2023-05-27T03:23:44.896Z,102068.14
2023-05-27T03:26:13.391Z,102068.79
2023-05-27T03:28:41.805Z,102068.58
2023-05-27T03:31:15.898Z,102066.07
2023-05-27T03:33:44.196Z,102057.19
2023-05-27T03:36:12.614Z,102060.00
2023-05-27T03:38:41.669Z,102061.97
2023-05-27T03:41:10.702Z,102069.05
2023-05-27T03:43:42.457Z,102070.15
2023-05-27T03:46:12.413Z,102065.79
2023-05-27T03:48:43.170Z,102067.73
2023-05-27T03:51:11.598Z,102063.91
2023-05-27T03:53:41.143Z,102071.83
2023-05-27T03:56:09.740Z,102073.05
2023-05-27T03:58:40.078Z,102076.95
2023-05-27T04:01:09.742Z,102080.33
2023-05-27T04:03:38.765Z,102085.62
2023-05-27T04:06:08.644Z,102085.38
2023-05-27T04:08:38.833Z,102087.53
2023-05-27T04:11:10.489Z,102089.67
2023-05-27T04:13:41.569Z,102089.64
2023-05-27T04:16:14.157Z,102094.48
2023-05-27T04:18:42.892Z,102099.14
2023-05-27T04:21:11.492Z,102106.63
2023-05-27T04:23:41.006Z,102106.66
2023-05-27T04:26:12.540Z,102105.64
2023-05-27T04:28:43.023Z,102108.72
2023-05-27T04:31:14.888Z,102108.79
2023-05-27T04:33:44.381Z,102107.49
2023-05-27T04:36:13.514Z,102112.34
2023-05-27T04:38:46.836Z,102111.06
2023-05-27T04:41:15.531Z,102113.58
2023-05-27T04:43:43.866Z,102116.21
2023-05-27T04:46:13.529Z,102115.22
2023-05-27T04:48:41.917Z,102113.91
2023-05-27T04:51:12.606Z,102114.73
2023-05-27T04:53:42.302Z,102109.00
2023-05-27T04:56:16.456Z,102111.61
2023-05-27T04:58:48.113Z,102105.96
2023-05-27T05:01:22.266Z,102105.55
2023-05-27T05:03:54.945Z,102111.59
2023-05-27T05:06:26.929Z,102106.85
2023-05-27T05:08:55.829Z,102109.11
2023-05-27T05:11:27.492Z,102108.13
2023-05-27T05:13:55.908Z,102110.83
2023-05-27T05:16:24.478Z,102118.58
2023-05-27T05:18:53.471Z,102117.90
2023-05-27T05:21:22.138Z,102111.11
2023-05-27T05:23:55.949Z,102111.34
2023-05-27T05:26:24.701Z,102112.74
2023-05-27T05:28:53.295Z,102115.02
2023-05-27T05:31:21.802Z,102120.17
2023-05-27T05:33:54.880Z,102123.30
2023-05-27T05:36:26.174Z,102123.02
2023-05-27T05:38:56.016Z,102124.48
2023-05-27T05:41:27.197Z,102121.98
2023-05-27T05:43:58.375Z,102126.09
2023-05-27T05:46:27.156Z,102122.33
2023-05-27T05:48:55.815Z,102126.65
2023-05-27T05:51:24.492Z,102127.39
2023-05-27T05:53:53.346Z,102128.68
2023-05-27T05:56:23.164Z,102127.80
2023-05-27T05:58:52.558Z,102131.15
2023-05-27T06:01:23.119Z,102135.44
2023-05-27T06:03:52.160Z,102138.65
2023-05-27T06:06:20.883Z,102135.88
2023-05-27T06:08:53.154Z,102132.66
2023-05-27T06:11:23.021Z,102129.70
2023-05-27T06:13:53.707Z,102132.80
2023-05-27T06:16:22.535Z,102141.15
2023-05-27T06:18:51.327Z,102146.35
2023-05-27T06:21:19.893Z,102151.71
2023-05-27T06:23:48.606Z,102151.34
2023-05-27T06:26:17.198Z,102146.56
2023-05-27T06:28:47.924Z,102151.54
2023-05-27T06:31:16.385Z,102150.62
2023-05-27T06:33:47.929Z,102146.11
2023-05-27T06:36:16.506Z,102147.19
2023-05-27T06:38:47.651Z,102142.36
2023-05-27T06:41:16.564Z,102145.35
2023-05-27T06:43:45.113Z,102143.21
2023-05-27T06:46:13.590Z,102142.23
2023-05-27T06:48:42.358Z,102146.30
2023-05-27T06:51:10.860Z,102147.86
2023-05-27T06:53:39.619Z,102152.25
2023-05-27T06:56:08.191Z,102149.09
2023-05-27T06:58:36.869Z,102149.73
2023-05-27T07:01:08.852Z,102150.13
2023-05-27T07:03:39.624Z,102149.14
2023-05-27T07:06:10.988Z,102144.02
2023-05-27T07:08:39.820Z,102138.98
2023-05-27T07:11:08.602Z,102137.23
2023-05-27T07:13:40.427Z,102131.69
2023-05-27T07:16:18.049Z,102131.13
2023-05-27T07:18:46.736Z,102128.14
2023-05-27T07:21:15.111Z,102128.02
2023-05-27T07:23:43.660Z,102124.67
2023-05-27T07:26:12.509Z,102122.64
2023-05-27T07:28:41.177Z,102119.87
2023-05-27T07:31:10.256Z,102120.03
2023-05-27T07:33:39.034Z,102119.95
2023-05-27T07:36:07.828Z,102122.89
2023-05-27T07:38:36.410Z,102125.56
2023-05-27T07:41:05.535Z,102124.58
2023-05-27T07:43:37.452Z,102122.02
2023-05-27T07:46:06.125Z,102119.42
2023-05-27T07:48:34.575Z,102121.27
2023-05-27T07:51:03.426Z,102119.83
2023-05-27T07:53:34.862Z,102118.23
2023-05-27T07:56:04.220Z,102116.34
2023-05-27T07:58:32.736Z,102111.88
2023-05-27T08:01:01.567Z,102110.67
2023-05-27T08:03:29.963Z,102115.10
2023-05-27T08:06:01.348Z,102115.91
2023-05-27T08:08:29.682Z,102108.17
2023-05-27T08:10:58.646Z,102102.09
2023-05-27T08:13:27.652Z,102105.33
2023-05-27T08:15:58.362Z,102102.05
2023-05-27T08:18:27.068Z,102098.08
2023-05-27T08:20:56.799Z,102096.88
2023-05-27T08:23:26.637Z,102103.36
2023-05-27T08:25:55.084Z,102106.16
2023-05-27T08:28:25.980Z,102108.55
2023-05-27T08:30:54.880Z,102108.09
2023-05-27T08:33:24.621Z,102108.67
2023-05-27T08:35:53.148Z,102103.00
2023-05-27T08:38:21.707Z,102096.68
2023-05-27T08:40:50.525Z,102098.35
2023-05-27T08:43:19.405Z,102092.97
2023-05-27T08:45:48.217Z,102090.69
2023-05-27T08:48:17.185Z,102091.16
2023-05-27T08:50:46.495Z,102088.99
2023-05-27T08:53:17.262Z,102091.19
2023-05-27T08:55:47.055Z,102093.25
2023-05-27T08:58:18.787Z,102086.27
2023-05-27T09:00:47.410Z,102088.30
2023-05-27T09:03:18.648Z,102092.72
2023-05-27T09:05:50.429Z,102091.08
2023-05-27T09:08:19.087Z,102088.27
2023-05-27T09:13:27.968Z,102086.02
2023-05-27T09:16:04.734Z,102079.30
2023-05-27T09:18:35.037Z,102082.33
2023-05-27T09:21:05.349Z,102084.66
2023-05-27T09:23:39.540Z,102086.98
2023-05-27T09:26:11.927Z,102083.82
2023-05-27T09:28:41.669Z,102079.61
2023-05-27T09:31:11.094Z,102082.77
2023-05-27T09:33:43.623Z,102084.59
2023-05-27T09:36:12.277Z,102078.91
2023-05-27T09:38:41.319Z,102082.92
2023-05-27T09:41:09.905Z,102078.34
2023-05-27T09:43:44.827Z,102080.23
2023-05-27T09:46:27.040Z,102078.86
2023-05-27T09:49:00.160Z,102084.20
2023-05-27T09:51:28.886Z,102082.89
2023-05-27T09:54:00.539Z,102081.73
2023-05-27T09:56:31.567Z,102075.80
2023-05-27T09:59:02.217Z,102079.09
2023-05-27T10:01:30.920Z,102078.50
2023-05-27T10:04:00.387Z,102078.21
2023-05-27T10:06:33.702Z,102079.77
2023-05-27T10:09:05.848Z,102076.41
2023-05-27T10:11:40.683Z,102074.79
2023-05-27T10:14:12.069Z,102075.39
2023-05-27T10:16:43.565Z,102071.04
2023-05-27T10:19:12.210Z,102073.27
2023-05-27T10:21:46.275Z,102071.85
2023-05-27T10:24:15.168Z,102071.30
2023-05-27T10:26:48.556Z,102071.88
2023-05-27T10:29:20.857Z,102070.89
2023-05-27T10:31:53.999Z,102064.64
2023-05-27T10:34:23.018Z,102056.28
2023-05-27T10:37:01.148Z,102056.50
2023-05-27T10:39:33.536Z,102055.22
2023-05-27T10:42:05.245Z,102057.55
2023-05-27T10:44:38.706Z,102056.58
2023-05-27T10:47:12.814Z,102052.45
2023-05-27T10:49:48.088Z,102056.39
2023-05-27T10:52:18.803Z,102052.55
2023-05-27T10:54:48.846Z,102046.89
2023-05-27T10:57:18.676Z,102044.73
2023-05-27T10:59:54.977Z,102038.88
2023-05-27T11:02:30.307Z,102043.13
2023-05-27T11:04:58.853Z,102042.34
2023-05-27T11:07:27.287Z,102035.36
2023-05-27T11:09:56.633Z,102030.10
2023-05-27T11:12:25.757Z,102036.45
2023-05-27T11:14:57.378Z,102031.30
2023-05-27T11:17:26.976Z,102025.21
2023-05-27T11:20:00.393Z,102018.91
2023-05-27T11:22:29.214Z,102019.33
2023-05-27T11:25:01.663Z,102012.48
2023-05-27T11:27:38.144Z,102005.39
2023-05-27T11:30:14.772Z,102010.43
2023-05-27T11:32:47.951Z,102008.98
2023-05-27T11:35:19.000Z,102011.82
2023-05-27T11:37:58.732Z,102014.01
2023-05-27T11:40:27.373Z,102010.86
2023-05-27T11:43:02.258Z,102007.52
2023-05-27T11:45:31.720Z,102002.34
2023-05-27T11:48:00.255Z,102000.51
2023-05-27T11:50:41.326Z,101994.73
2023-05-27T11:53:16.986Z,101990.41
2023-05-27T11:55:47.174Z,101994.11
2023-05-27T11:58:17.965Z,101989.60
2023-05-27T12:00:50.004Z,101989.33
2023-05-27T12:03:18.775Z,101983.21
2023-05-27T12:05:47.640Z,101975.95
2023-05-27T12:08:26.744Z,101975.09
2023-05-27T12:10:58.421Z,101973.21
2023-05-27T12:13:31.230Z,101971.48
2023-05-27T12:16:00.241Z,101973.41
2023-05-27T12:18:28.939Z,101971.27
2023-05-27T12:20:57.769Z,101974.88
2023-05-27T12:23:26.766Z,101968.85
2023-05-27T12:26:02.848Z,101962.29
2023-05-27T12:28:31.630Z,101955.16
2023-05-27T12:31:01.591Z,101950.63
2023-05-27T12:33:30.668Z,101951.21
2023-05-27T12:36:07.518Z,101949.77
2023-05-27T12:38:37.948Z,101953.02
2023-05-27T12:41:09.800Z,101954.17
2023-05-27T12:43:41.457Z,101943.36
2023-05-27T12:46:14.728Z,101938.73
2023-05-27T12:48:43.655Z,101940.30
2023-05-27T12:51:15.344Z,101946.13
2023-05-27T12:53:44.562Z,101941.41
2023-05-27T12:56:13.257Z,101939.95
2023-05-27T12:58:41.773Z,101936.69
2023-05-27T13:01:16.384Z,101936.67
2023-05-27T13:03:45.267Z,101930.52
2023-05-27T13:06:14.228Z,101933.38
2023-05-27T13:08:43.103Z,101936.76
2023-05-27T13:11:12.100Z,101936.78
2023-05-27T13:13:43.111Z,101926.83
2023-05-27T13:16:12.246Z,101927.33
2023-05-27T13:18:40.947Z,101926.23
2023-05-27T13:21:09.889Z,101922.12
2023-05-27T13:23:40.152Z,101922.86
2023-05-27T13:26:09.308Z,101919.51
2023-05-27T13:28:38.147Z,101908.86
2023-05-27T13:31:09.200Z,101902.73
2023-05-27T13:33:42.150Z,101899.71
2023-05-27T13:36:13.802Z,101890.13
2023-05-27T13:38:45.368Z,101886.82
2023-05-27T13:41:16.328Z,101888.11
2023-05-27T13:43:44.705Z,101884.46
2023-05-27T13:46:16.577Z,101880.65
2023-05-27T13:48:45.260Z,101876.60
2023-05-27T13:51:13.778Z,101868.05
2023-05-27T13:53:44.107Z,101870.42
2023-05-27T13:56:12.889Z,101870.88
2023-05-27T13:58:41.659Z,101872.15
2023-05-27T14:01:10.242Z,101865.11
2023-05-27T14:03:38.738Z,101855.45
2023-05-27T14:06:08.386Z,101848.73
2023-05-27T14:08:36.846Z,101847.88
2023-05-27T14:11:05.343Z,101844.64
2023-05-27T14:13:34.059Z,101845.96
2023-05-27T14:16:02.908Z,101841.95
2023-05-27T14:18:31.849Z,101837.48
2023-05-27T14:21:00.059Z,101834.43
2023-05-27T14:23:28.470Z,101832.04
2023-05-27T14:25:57.021Z,101833.70
2023-05-27T14:28:25.320Z,101834.88
2023-05-27T14:30:54.303Z,101830.46
2023-05-27T14:33:22.745Z,101829.64
2023-05-27T14:35:51.435Z,101828.61
2023-05-27T14:38:20.099Z,101828.28
2023-05-27T14:40:50.841Z,101825.25
2023-05-27T14:43:19.606Z,101824.59
2023-05-27T14:45:48.117Z,101816.90
2023-05-27T14:48:16.488Z,101814.65
2023-05-27T14:50:45.581Z,101818.01
2023-05-27T14:53:14.057Z,101814.27
2023-05-27T14:55:42.609Z,101809.66
2023-05-27T14:58:10.827Z,101804.71
2023-05-27T15:00:41.554Z,101803.16
2023-05-27T15:03:11.198Z,101802.75
2023-05-27T15:05:40.203Z,101803.98
2023-05-27T15:08:18.148Z,101803.64
2023-05-27T15:10:47.113Z,101801.45
2023-05-27T15:13:15.678Z,101796.46
2023-05-27T15:15:45.335Z,101796.48
2023-05-27T15:18:13.866Z,101791.89
2023-05-27T15:20:42.837Z,101790.55
2023-05-27T15:23:11.674Z,101791.88
2023-05-27T15:25:40.021Z,101788.64
2023-05-27T15:28:09.493Z,101783.93
2023-05-27T15:30:38.014Z,101784.55
2023-05-27T15:33:07.187Z,101786.96
2023-05-27T15:35:35.769Z,101784.80
2023-05-27T15:38:04.708Z,101784.02
2023-05-27T15:40:33.479Z,101782.53
2023-05-27T15:43:02.276Z,101786.27
2023-05-27T15:45:33.987Z,101787.60
2023-05-27T15:48:05.321Z,101788.20
2023-05-27T15:50:33.944Z,101783.54
2023-05-27T15:53:05.071Z,101781.64
2023-05-27T15:55:33.822Z,101782.50
2023-05-27T15:58:03.071Z,101781.06
2023-05-27T16:00:31.485Z,101780.84
2023-05-27T16:03:02.217Z,101783.05
2023-05-27T16:05:30.788Z,101778.05
2023-05-27T16:07:59.520Z,101779.21
2023-05-27T16:10:27.730Z,101781.84
2023-05-27T16:12:58.821Z,101780.23
2023-05-27T16:15:27.659Z,101771.98
2023-05-27T16:18:08.755Z,101765.48
2023-05-27T16:20:37.413Z,101767.34
2023-05-27T16:23:07.418Z,101766.85
2023-05-27T16:25:37.361Z,101767.29
2023-05-27T16:28:06.571Z,101766.59
2023-05-27T16:30:36.025Z,101762.23
2023-05-27T16:33:04.979Z,101759.90
2023-05-27T16:35:33.941Z,101760.45
2023-05-27T16:38:02.246Z,101758.70
2023-05-27T16:40:30.976Z,101762.46
2023-05-27T16:42:59.803Z,101760.98
2023-05-27T16:45:28.590Z,101761.66
2023-05-27T16:47:57.517Z,101762.73
2023-05-27T16:50:26.593Z,101759.04
2023-05-27T16:52:56.493Z,101753.33
2023-05-27T16:55:25.029Z,101753.39
2023-05-27T16:57:56.887Z,101752.70
2023-05-27T17:00:31.674Z,101753.33
2023-05-27T17:03:07.873Z,101750.90
2023-05-27T17:05:46.720Z,101749.95
2023-05-27T17:08:15.654Z,101744.11
2023-05-27T17:10:44.693Z,101742.52
2023-05-27T17:13:20.221Z,101743.14
2023-05-27T17:16:05.841Z,101742.02
2023-05-27T17:18:36.646Z,101740.83
2023-05-27T17:21:29.906Z,101740.87
2023-05-27T17:24:01.701Z,101744.73
2023-05-27T17:26:43.181Z,101738.88
2023-05-27T17:29:16.675Z,101741.94
2023-05-27T17:31:48.431Z,101736.59
2023-05-27T17:34:19.240Z,101736.06
2023-05-27T17:36:48.243Z,101733.95
2023-05-27T17:39:16.874Z,101732.31
2023-05-27T17:41:45.897Z,101730.26
2023-05-27T17:44:14.895Z,101737.34
2023-05-27T17:46:45.319Z,101740.89
2023-05-27T17:49:14.195Z,101737.50
2023-05-27T17:51:43.572Z,101735.55
2023-05-27T17:54:12.489Z,101739.65
2023-05-27T17:56:43.758Z,101738.52
2023-05-27T17:59:15.005Z,101741.05
2023-05-27T18:01:43.771Z,101739.46
2023-05-27T18:04:13.450Z,101736.32
2023-05-27T18:06:46.192Z,101739.77
2023-05-27T18:09:15.209Z,101737.00
2023-05-27T18:11:45.478Z,101732.61
2023-05-27T18:14:14.683Z,101729.42
2023-05-27T18:16:53.078Z,101730.66
2023-05-27T18:19:21.925Z,101730.34
2023-05-27T18:21:50.529Z,101726.98
2023-05-27T18:24:20.026Z,101727.98
2023-05-27T18:26:50.200Z,101728.14
2023-05-27T18:29:19.529Z,101727.04
2023-05-27T18:31:48.338Z,101727.95
2023-05-27T18:34:17.558Z,101728.92
2023-05-27T18:39:45.604Z,101728.55
2023-05-27T18:42:37.570Z,101731.55
2023-05-27T18:45:32.690Z,101731.86
2023-05-27T18:48:04.706Z,101732.01
2023-05-27T18:50:46.716Z,101737.39
2023-05-27T18:53:21.919Z,101739.02
2023-05-27T18:56:13.458Z,101737.04
2023-05-27T18:58:45.599Z,101737.29
2023-05-27T19:01:15.898Z,101735.95
2023-05-27T19:03:45.992Z,101735.59
2023-05-27T19:06:16.206Z,101740.44
2023-05-27T19:08:50.195Z,101744.15
2023-05-27T19:11:25.151Z,101746.80
2023-05-27T19:13:56.927Z,101742.20
2023-05-27T19:16:25.915Z,101740.73
2023-05-27T19:21:37.268Z,101742.17
2023-05-27T19:24:06.865Z,101742.40
2023-05-27T19:26:36.121Z,101736.66
2023-05-27T19:29:25.311Z,101740.73
2023-05-27T19:31:54.856Z,101737.48
2023-05-27T19:34:44.267Z,101737.27
2023-05-27T19:37:14.748Z,101738.02
2023-05-27T19:39:44.364Z,101737.30
2023-05-27T19:42:34.679Z,101732.53
2023-05-27T19:45:03.708Z,101729.31
2023-05-27T19:47:32.630Z,101728.10
2023-05-27T19:50:02.092Z,101728.72
2023-05-27T19:53:10.384Z,101728.65
2023-05-27T19:55:39.812Z,101729.83
2023-05-27T19:58:10.086Z,101727.65
2023-05-27T20:00:39.344Z,101730.31
2023-05-27T20:03:09.186Z,101731.61
2023-05-27T20:05:38.859Z,101728.83
2023-05-27T20:08:07.964Z,101734.52
2023-05-27T20:10:38.081Z,101733.55
2023-05-27T20:13:17.427Z,101732.31
2023-05-27T20:15:46.709Z,101729.34
2023-05-27T20:18:18.956Z,101726.59
2023-05-27T20:21:07.882Z,101733.30
2023-05-27T20:24:01.101Z,101734.61
2023-05-27T20:26:30.424Z,101738.60
2023-05-27T20:28:59.490Z,101741.15
2023-05-27T20:31:28.503Z,101745.31
2023-05-27T20:33:57.971Z,101740.86
2023-05-27T20:36:26.686Z,101743.90
2023-05-27T20:38:59.097Z,101746.73
2023-05-27T20:41:30.631Z,101742.96
2023-05-27T20:44:01.377Z,101740.31
2023-05-27T20:46:31.199Z,101747.64
2023-05-27T20:48:59.781Z,101748.27
2023-05-27T20:51:29.896Z,101749.55
2023-05-27T20:54:02.510Z,101749.55
2023-05-27T20:56:30.854Z,101747.19
2023-05-27T20:58:59.859Z,101746.78
2023-05-27T21:01:31.776Z,101746.91
2023-05-27T21:04:06.148Z,101750.43
2023-05-27T21:06:37.706Z,101750.25
2023-05-27T21:09:06.691Z,101744.56
2023-05-27T21:11:35.209Z,101744.51
2023-05-27T21:14:04.301Z,101743.77
2023-05-27T21:16:34.139Z,101747.36
2023-05-27T21:19:02.619Z,101751.09
2023-05-27T21:21:31.784Z,101758.23
2023-05-27T21:24:00.481Z,101758.95
2023-05-27T21:26:29.123Z,101757.36
2023-05-27T21:28:57.810Z,101758.88
2023-05-27T21:31:26.465Z,101758.00
2023-05-27T21:33:55.005Z,101754.00
2023-05-27T21:36:23.621Z,101754.73
2023-05-27T21:38:52.160Z,101755.35
2023-05-27T21:41:20.775Z,101752.52
2023-05-27T21:43:49.485Z,101752.46
2023-05-27T21:46:19.712Z,101751.92
2023-05-27T21:48:51.512Z,101749.88
2023-05-27T21:51:20.809Z,101748.89
2023-05-27T21:53:49.524Z,101745.83
2023-05-27T21:56:18.587Z,101739.92
2023-05-27T21:58:47.279Z,101740.88
2023-05-27T22:01:16.285Z,101741.28
2023-05-27T22:03:45.033Z,101736.02
2023-05-27T22:06:13.644Z,101735.20
2023-05-27T22:08:42.248Z,101733.15
2023-05-27T22:11:11.085Z,101734.16
2023-05-27T22:13:39.804Z,101735.17
2023-05-27T22:16:08.600Z,101735.67
2023-05-27T22:18:37.145Z,101737.42
2023-05-27T22:21:17.328Z,101736.76
2023-05-27T22:23:56.675Z,101736.25
2023-05-27T22:26:27.787Z,101738.14
2023-05-27T22:28:56.269Z,101736.73
2023-05-27T22:31:26.057Z,101737.11
2023-05-27T22:33:54.535Z,101732.15
2023-05-27T22:36:22.879Z,101729.04
2023-05-27T22:38:51.423Z,101725.39
2023-05-27T22:41:20.911Z,101724.94
2023-05-27T22:43:49.525Z,101727.96
2023-05-27T22:46:18.252Z,101728.44
2023-05-27T22:48:47.081Z,101723.88
2023-05-27T22:51:16.196Z,101726.64
2023-05-27T22:53:44.945Z,101728.48
2023-05-27T22:56:15.219Z,101728.20
2023-05-27T22:58:46.578Z,101725.27
2023-05-27T23:04:20.736Z,101724.36
2023-05-27T23:06:48.950Z,101726.52
2023-05-27T23:09:19.518Z,101726.95
2023-05-27T23:11:48.221Z,101724.15
2023-05-27T23:14:16.706Z,101720.08
2023-05-27T23:16:45.263Z,101717.50
2023-05-27T23:19:16.053Z,101716.98
2023-05-27T23:22:04.705Z,101716.60
2023-05-27T23:24:32.987Z,101716.74
2023-05-27T23:27:02.224Z,101715.73
2023-05-27T23:29:30.918Z,101711.02
2023-05-27T23:31:59.457Z,101712.19
2023-05-27T23:34:28.491Z,101710.72
2023-05-27T23:36:56.906Z,101710.48
2023-05-27T23:39:25.147Z,101711.38
2023-05-27T23:41:54.299Z,101712.41
2023-05-27T23:44:22.679Z,101705.48
2023-05-27T23:46:51.173Z,101705.54
2023-05-27T23:49:19.591Z,101700.33
2023-05-27T23:51:47.868Z,101697.06
2023-05-27T23:54:16.563Z,101693.41
2023-05-27T23:56:45.091Z,101686.30
2023-05-27T23:59:13.561Z,101688.02
